EDT,Max TemperatureF,Mean TemperatureF,Min TemperatureF,Max Dew PointF,MeanDew PointF,Min DewpointF,Max Humidity, Mean Humidity, Min Humidity, Max Sea Level PressureIn, Mean Sea Level PressureIn, Min Sea Level PressureIn, Max VisibilityMiles, Mean VisibilityMiles, Min VisibilityMiles, Max Wind SpeedMPH, Mean Wind SpeedMPH, Max Gust SpeedMPH,PrecipitationIn, CloudCover, Events, WindDirDegrees
2010-10-1,79,66,55,53,50,42,89,59,28,29.93,29.84,29.76,10,10,9,8,5,,0.00,0,,321
2010-10-2,75,63,53,53,48,45,77,60,38,30.01,29.94,29.90,10,10,10,14,4,,0.00,0,,21
2010-10-3,69,60,50,50,45,40,77,62,43,30.10,29.99,29.91,10,10,10,18,7,26,0.00,0,,327
2010-10-4,66,57,48,42,40,35,77,60,32,30.21,30.15,30.09,10,10,10,12,5,20,0.00,2,,323
2010-10-5,70,56,43,42,39,37,86,58,34,30.29,30.22,30.18,10,10,9,15,5,21,0.00,0,,332
2010-10-6,72,58,46,41,36,30,76,47,24,30.22,30.15,30.07,10,10,10,17,6,28,0.00,0,,308
2010-10-7,79,64,48,53,46,38,80,52,35,30.13,30.07,30.00,10,10,10,10,5,,0.00,0,,279
2010-10-8,79,66,55,53,50,47,86,59,36,30.16,30.09,30.04,10,10,9,7,3,,0.00,0,,123
2010-10-9,82,68,54,55,52,47,93,64,30,30.09,30.05,30.00,10,10,7,7,2,,0.00,0,,298
2010-10-10,82,68,55,55,52,47,93,61,31,30.06,30.01,29.95,10,10,10,7,1,,0.00,0,,360
2010-10-11,84,68,55,56,52,46,90,59,27,29.99,29.95,29.90,10,10,9,9,2,,0.00,0,,234
2010-10-12,79,70,61,58,55,53,84,63,42,29.98,29.95,29.91,10,10,8,13,5,,0.00,0,,269
2010-10-13,78,68,57,58,55,50,90,70,41,30.05,29.97,29.94,10,10,8,9,2,,0.00,3,Rain-Thunderstorm,318
2010-10-14,72,62,55,59,44,27,90,54,24,30.01,29.96,29.91,10,10,10,17,8,24,0.00,1,,315
2010-10-15,73,60,46,39,36,31,71,45,23,30.08,29.98,29.88,10,10,10,20,8,30,0.00,0,,287
2010-10-16,72,58,45,42,38,32,80,52,25,30.21,30.13,30.07,10,10,10,9,3,,0.00,0,,270
2010-10-17,77,60,46,46,40,33,83,50,23,30.18,30.11,30.05,10,10,10,7,5,,0.00,0,,277
2010-10-18,77,62,48,47,44,37,90,58,24,30.07,30.00,29.94,10,10,10,9,4,,0.00,0,,275
2010-10-19,78,63,48,55,50,46,96,65,34,29.97,29.93,29.89,10,10,7,9,3,,0.00,0,,269
2010-10-20,73,64,55,57,52,42,90,66,36,29.95,29.90,29.85,10,9,6,14,6,21,0.01,3,Rain,292
2010-10-21,78,64,50,43,39,37,68,45,24,29.99,29.95,29.90,10,10,9,14,7,22,0.00,0,,288
2010-10-22,75,62,50,40,34,26,57,38,17,30.23,30.11,29.98,10,10,10,7,4,,0.00,0,,288
2010-10-23,73,60,46,47,41,38,77,51,28,30.32,30.26,30.23,10,10,10,8,3,,0.00,0,,93
2010-10-24,78,65,53,58,51,38,78,64,45,30.26,30.18,30.03,10,10,10,9,4,17,0.00,4,,103
2010-10-25,72,66,62,65,62,58,100,88,69,30.05,29.95,29.85,10,8,2,15,5,21,0.54,6,Rain-Thunderstorm,147
2010-10-26,82,74,66,70,67,63,97,85,56,29.91,29.86,29.76,10,8,0,20,7,45,0.93,7,Fog-Rain-Thunderstorm,196
2010-10-27,77,70,66,70,68,66,100,90,73,30.10,30.01,29.87,10,6,0,21,7,28,0.70,7,Fog-Rain-Thunderstorm,230
2010-10-28,75,65,57,68,60,36,100,82,29,30.12,30.08,30.03,10,6,0,14,5,20,0.01,4,Fog-Rain,276
2010-10-29,68,56,46,40,36,34,71,51,30,30.21,30.16,30.10,10,10,10,10,7,,0.00,0,,278
2010-10-30,68,56,44,43,39,35,73,56,35,30.28,30.17,30.08,10,10,10,10,4,,0.00,0,,114
2010-10-31,72,60,48,47,42,37,93,57,30,30.10,30.06,29.99,10,10,8,13,5,17,0.00,0,,271